sensor_id;sensor_type;location;lat;lon;timestamp;P1;durP1;ratioP1;P2;durP2;ratioP2
46731;SDS011;32477;51.474;5.696;2023-09-19T00:00:19;16.23;;;2.72;;
46731;SDS011;32477;51.474;5.696;2023-09-19T00:02:52;14.90;;;3.25;;
46731;SDS011;32477;51.474;5.696;2023-09-19T00:05:24;19.35;;;3.53;;
46731;SDS011;32477;51.474;5.696;2023-09-19T00:07:52;13.68;;;2.50;;
46731;SDS011;32477;51.474;5.696;2023-09-19T00:10:20;16.83;;;3.00;;
46731;SDS011;32477;51.474;5.696;2023-09-19T00:12:47;23.98;;;2.88;;
46731;SDS011;32477;51.474;5.696;2023-09-19T00:15:12;15.25;;;3.15;;
46731;SDS011;32477;51.474;5.696;2023-09-19T00:17:39;14.68;;;3.55;;
46731;SDS011;32477;51.474;5.696;2023-09-19T00:20:05;9.55;;;2.88;;
46731;SDS011;32477;51.474;5.696;2023-09-19T00:22:39;11.30;;;2.55;;
46731;SDS011;32477;51.474;5.696;2023-09-19T00:25:05;15.98;;;3.22;;
46731;SDS011;32477;51.474;5.696;2023-09-19T00:27:31;21.27;;;2.75;;
46731;SDS011;32477;51.474;5.696;2023-09-19T00:29:58;19.02;;;2.80;;
46731;SDS011;32477;51.474;5.696;2023-09-19T00:32:25;18.80;;;2.97;;
46731;SDS011;32477;51.474;5.696;2023-09-19T00:34:56;17.05;;;3.25;;
46731;SDS011;32477;51.474;5.696;2023-09-19T00:37:22;18.40;;;3.33;;
46731;SDS011;32477;51.474;5.696;2023-09-19T00:39:48;19.67;;;2.78;;
46731;SDS011;32477;51.474;5.696;2023-09-19T00:42:20;15.38;;;3.65;;
46731;SDS011;32477;51.474;5.696;2023-09-19T00:44:46;14.80;;;3.15;;
46731;SDS011;32477;51.474;5.696;2023-09-19T00:47:12;15.00;;;2.45;;
46731;SDS011;32477;51.474;5.696;2023-09-19T00:49:42;14.25;;;3.08;;
46731;SDS011;32477;51.474;5.696;2023-09-19T00:52:08;15.60;;;3.10;;
46731;SDS011;32477;51.474;5.696;2023-09-19T00:54:37;15.05;;;2.58;;
46731;SDS011;32477;51.474;5.696;2023-09-19T00:57:03;12.48;;;2.90;;
46731;SDS011;32477;51.474;5.696;2023-09-19T00:59:29;20.25;;;3.25;;
46731;SDS011;32477;51.474;5.696;2023-09-19T01:01:55;18.65;;;3.10;;
46731;SDS011;32477;51.474;5.696;2023-09-19T01:04:22;15.82;;;3.53;;
46731;SDS011;32477;51.474;5.696;2023-09-19T01:06:48;9.55;;;2.63;;
46731;SDS011;32477;51.474;5.696;2023-09-19T01:09:18;11.35;;;2.55;;
46731;SDS011;32477;51.474;5.696;2023-09-19T01:11:47;11.27;;;2.40;;
46731;SDS011;32477;51.474;5.696;2023-09-19T01:14:37;17.83;;;2.90;;
46731;SDS011;32477;51.474;5.696;2023-09-19T01:17:25;12.88;;;3.00;;
46731;SDS011;32477;51.474;5.696;2023-09-19T01:30:24;15.73;;;2.58;;
46731;SDS011;32477;51.474;5.696;2023-09-19T01:32:52;22.20;;;2.78;;
46731;SDS011;32477;51.474;5.696;2023-09-19T01:35:19;13.60;;;2.72;;
46731;SDS011;32477;51.474;5.696;2023-09-19T01:37:44;13.88;;;3.45;;
46731;SDS011;32477;51.474;5.696;2023-09-19T01:40:14;12.57;;;2.40;;
46731;SDS011;32477;51.474;5.696;2023-09-19T01:42:49;20.38;;;2.70;;
46731;SDS011;32477;51.474;5.696;2023-09-19T01:48:01;12.10;;;2.05;;
46731;SDS011;32477;51.474;5.696;2023-09-19T01:51:00;14.00;;;2.15;;
46731;SDS011;32477;51.474;5.696;2023-09-19T01:53:35;14.35;;;2.50;;
46731;SDS011;32477;51.474;5.696;2023-09-19T01:56:06;17.25;;;2.30;;
46731;SDS011;32477;51.474;5.696;2023-09-19T01:58:37;13.05;;;2.25;;
46731;SDS011;32477;51.474;5.696;2023-09-19T02:01:04;13.95;;;2.50;;
46731;SDS011;32477;51.474;5.696;2023-09-19T02:03:33;13.32;;;2.72;;
46731;SDS011;32477;51.474;5.696;2023-09-19T02:06:01;17.90;;;4.03;;
46731;SDS011;32477;51.474;5.696;2023-09-19T02:08:28;14.95;;;2.83;;
46731;SDS011;32477;51.474;5.696;2023-09-19T02:10:56;18.38;;;2.85;;
46731;SDS011;32477;51.474;5.696;2023-09-19T02:13:22;20.63;;;2.97;;
46731;SDS011;32477;51.474;5.696;2023-09-19T02:15:53;17.42;;;2.47;;
46731;SDS011;32477;51.474;5.696;2023-09-19T02:18:18;13.00;;;2.67;;
46731;SDS011;32477;51.474;5.696;2023-09-19T02:20:45;9.85;;;2.28;;
46731;SDS011;32477;51.474;5.696;2023-09-19T02:23:11;12.32;;;2.15;;
46731;SDS011;32477;51.474;5.696;2023-09-19T02:25:38;15.73;;;2.53;;
46731;SDS011;32477;51.474;5.696;2023-09-19T02:28:05;13.98;;;2.13;;
46731;SDS011;32477;51.474;5.696;2023-09-19T02:30:31;9.82;;;2.25;;
46731;SDS011;32477;51.474;5.696;2023-09-19T02:32:58;20.13;;;3.03;;
46731;SDS011;32477;51.474;5.696;2023-09-19T02:35:26;12.23;;;3.30;;
46731;SDS011;32477;51.474;5.696;2023-09-19T02:37:53;19.23;;;2.72;;
46731;SDS011;32477;51.474;5.696;2023-09-19T02:40:18;15.23;;;3.13;;
46731;SDS011;32477;51.474;5.696;2023-09-19T02:42:47;9.10;;;2.10;;
46731;SDS011;32477;51.474;5.696;2023-09-19T02:45:17;16.90;;;2.38;;
46731;SDS011;32477;51.474;5.696;2023-09-19T02:47:44;15.85;;;2.30;;
46731;SDS011;32477;51.474;5.696;2023-09-19T02:50:10;15.13;;;3.08;;
46731;SDS011;32477;51.474;5.696;2023-09-19T02:52:37;16.38;;;2.97;;
46731;SDS011;32477;51.474;5.696;2023-09-19T02:55:03;15.13;;;4.40;;
46731;SDS011;32477;51.474;5.696;2023-09-19T02:57:31;15.93;;;2.70;;
46731;SDS011;32477;51.474;5.696;2023-09-19T02:59:59;12.57;;;2.55;;
46731;SDS011;32477;51.474;5.696;2023-09-19T03:02:26;13.93;;;2.10;;
46731;SDS011;32477;51.474;5.696;2023-09-19T03:04:52;10.02;;;1.63;;
46731;SDS011;32477;51.474;5.696;2023-09-19T03:07:18;14.10;;;3.42;;
46731;SDS011;32477;51.474;5.696;2023-09-19T03:09:44;18.77;;;3.33;;
46731;SDS011;32477;51.474;5.696;2023-09-19T03:12:10;12.50;;;1.90;;
46731;SDS011;32477;51.474;5.696;2023-09-19T03:14:36;10.93;;;2.20;;
46731;SDS011;32477;51.474;5.696;2023-09-19T03:17:02;12.25;;;1.92;;
46731;SDS011;32477;51.474;5.696;2023-09-19T03:19:30;18.45;;;3.10;;
46731;SDS011;32477;51.474;5.696;2023-09-19T03:21:58;14.98;;;2.42;;
46731;SDS011;32477;51.474;5.696;2023-09-19T03:24:24;12.55;;;2.55;;
46731;SDS011;32477;51.474;5.696;2023-09-19T03:26:50;14.77;;;3.10;;
46731;SDS011;32477;51.474;5.696;2023-09-19T03:29:16;9.95;;;2.97;;
46731;SDS011;32477;51.474;5.696;2023-09-19T03:31:42;11.05;;;1.92;;
46731;SDS011;32477;51.474;5.696;2023-09-19T03:34:07;8.38;;;2.47;;
46731;SDS011;32477;51.474;5.696;2023-09-19T03:36:34;19.52;;;2.85;;
46731;SDS011;32477;51.474;5.696;2023-09-19T03:39:00;13.35;;;2.35;;
46731;SDS011;32477;51.474;5.696;2023-09-19T03:41:26;13.43;;;2.00;;
46731;SDS011;32477;51.474;5.696;2023-09-19T03:43:51;7.05;;;1.92;;
46731;SDS011;32477;51.474;5.696;2023-09-19T03:46:17;16.20;;;2.95;;
46731;SDS011;32477;51.474;5.696;2023-09-19T03:48:43;18.17;;;2.85;;
46731;SDS011;32477;51.474;5.696;2023-09-19T03:51:09;12.00;;;3.03;;
46731;SDS011;32477;51.474;5.696;2023-09-19T03:53:35;18.55;;;2.90;;
46731;SDS011;32477;51.474;5.696;2023-09-19T03:56:01;7.80;;;1.63;;
46731;SDS011;32477;51.474;5.696;2023-09-19T03:58:27;11.88;;;2.40;;
46731;SDS011;32477;51.474;5.696;2023-09-19T04:00:56;14.40;;;2.05;;
46731;SDS011;32477;51.474;5.696;2023-09-19T04:03:23;18.85;;;2.65;;
46731;SDS011;32477;51.474;5.696;2023-09-19T04:05:53;9.85;;;2.35;;
46731;SDS011;32477;51.474;5.696;2023-09-19T04:08:19;16.75;;;2.60;;
46731;SDS011;32477;51.474;5.696;2023-09-19T04:10:44;12.80;;;3.53;;
46731;SDS011;32477;51.474;5.696;2023-09-19T04:13:10;10.38;;;2.08;;
46731;SDS011;32477;51.474;5.696;2023-09-19T04:15:36;18.98;;;2.75;;
46731;SDS011;32477;51.474;5.696;2023-09-19T04:18:02;17.45;;;2.97;;
46731;SDS011;32477;51.474;5.696;2023-09-19T04:20:28;7.35;;;2.78;;
46731;SDS011;32477;51.474;5.696;2023-09-19T04:22:54;13.57;;;3.17;;
46731;SDS011;32477;51.474;5.696;2023-09-19T04:25:20;10.93;;;2.30;;
46731;SDS011;32477;51.474;5.696;2023-09-19T04:27:46;21.38;;;2.78;;
46731;SDS011;32477;51.474;5.696;2023-09-19T04:30:11;13.25;;;2.78;;
46731;SDS011;32477;51.474;5.696;2023-09-19T04:32:40;10.23;;;2.65;;
46731;SDS011;32477;51.474;5.696;2023-09-19T04:35:07;9.93;;;2.47;;
46731;SDS011;32477;51.474;5.696;2023-09-19T04:37:40;13.27;;;2.72;;
46731;SDS011;32477;51.474;5.696;2023-09-19T04:40:09;13.60;;;3.10;;
46731;SDS011;32477;51.474;5.696;2023-09-19T04:42:42;12.68;;;2.70;;
46731;SDS011;32477;51.474;5.696;2023-09-19T04:45:08;12.75;;;2.45;;
46731;SDS011;32477;51.474;5.696;2023-09-19T04:47:35;25.45;;;3.05;;
46731;SDS011;32477;51.474;5.696;2023-09-19T04:50:04;15.38;;;2.13;;
46731;SDS011;32477;51.474;5.696;2023-09-19T04:52:31;9.75;;;2.13;;
46731;SDS011;32477;51.474;5.696;2023-09-19T04:54:56;11.10;;;2.92;;
46731;SDS011;32477;51.474;5.696;2023-09-19T04:57:22;15.30;;;3.90;;
46731;SDS011;32477;51.474;5.696;2023-09-19T04:59:48;14.23;;;2.63;;
46731;SDS011;32477;51.474;5.696;2023-09-19T05:02:14;13.70;;;2.45;;
46731;SDS011;32477;51.474;5.696;2023-09-19T05:04:39;12.60;;;2.65;;
46731;SDS011;32477;51.474;5.696;2023-09-19T05:07:05;21.55;;;2.65;;
46731;SDS011;32477;51.474;5.696;2023-09-19T05:09:31;18.50;;;3.60;;
46731;SDS011;32477;51.474;5.696;2023-09-19T05:11:59;12.57;;;2.60;;
46731;SDS011;32477;51.474;5.696;2023-09-19T05:14:24;14.40;;;2.58;;
46731;SDS011;32477;51.474;5.696;2023-09-19T05:16:50;13.85;;;2.65;;
46731;SDS011;32477;51.474;5.696;2023-09-19T05:19:15;9.13;;;2.80;;
46731;SDS011;32477;51.474;5.696;2023-09-19T05:21:41;14.10;;;2.40;;
46731;SDS011;32477;51.474;5.696;2023-09-19T05:24:07;14.82;;;3.55;;
46731;SDS011;32477;51.474;5.696;2023-09-19T05:26:33;14.75;;;2.92;;
46731;SDS011;32477;51.474;5.696;2023-09-19T05:28:59;15.32;;;2.40;;
46731;SDS011;32477;51.474;5.696;2023-09-19T05:31:26;12.02;;;2.47;;
46731;SDS011;32477;51.474;5.696;2023-09-19T05:33:52;13.48;;;3.08;;
46731;SDS011;32477;51.474;5.696;2023-09-19T05:36:20;12.55;;;2.10;;
46731;SDS011;32477;51.474;5.696;2023-09-19T05:38:45;18.33;;;3.25;;
46731;SDS011;32477;51.474;5.696;2023-09-19T05:41:14;12.32;;;2.85;;
46731;SDS011;32477;51.474;5.696;2023-09-19T05:43:41;15.90;;;2.13;;
46731;SDS011;32477;51.474;5.696;2023-09-19T05:46:07;12.98;;;2.25;;
46731;SDS011;32477;51.474;5.696;2023-09-19T05:48:33;15.30;;;2.58;;
46731;SDS011;32477;51.474;5.696;2023-09-19T05:50:59;10.90;;;1.98;;
46731;SDS011;32477;51.474;5.696;2023-09-19T05:53:26;16.42;;;2.78;;
46731;SDS011;32477;51.474;5.696;2023-09-19T05:55:52;19.40;;;2.13;;
46731;SDS011;32477;51.474;5.696;2023-09-19T05:58:18;10.70;;;2.22;;
46731;SDS011;32477;51.474;5.696;2023-09-19T06:00:45;12.40;;;2.30;;
46731;SDS011;32477;51.474;5.696;2023-09-19T06:03:13;14.68;;;2.20;;
46731;SDS011;32477;51.474;5.696;2023-09-19T06:05:39;11.18;;;2.42;;
46731;SDS011;32477;51.474;5.696;2023-09-19T06:08:08;13.95;;;2.35;;
46731;SDS011;32477;51.474;5.696;2023-09-19T06:10:34;10.82;;;2.53;;
46731;SDS011;32477;51.474;5.696;2023-09-19T06:13:01;15.98;;;2.90;;
46731;SDS011;32477;51.474;5.696;2023-09-19T06:15:31;6.85;;;2.10;;
46731;SDS011;32477;51.474;5.696;2023-09-19T06:17:58;17.60;;;2.20;;
46731;SDS011;32477;51.474;5.696;2023-09-19T06:20:27;13.85;;;2.33;;
46731;SDS011;32477;51.474;5.696;2023-09-19T06:22:53;14.48;;;3.20;;
46731;SDS011;32477;51.474;5.696;2023-09-19T06:25:19;18.83;;;3.47;;
46731;SDS011;32477;51.474;5.696;2023-09-19T06:27:48;11.35;;;2.38;;
46731;SDS011;32477;51.474;5.696;2023-09-19T06:30:17;11.88;;;2.78;;
46731;SDS011;32477;51.474;5.696;2023-09-19T06:32:43;15.48;;;2.92;;
46731;SDS011;32477;51.474;5.696;2023-09-19T06:35:09;14.50;;;2.83;;
46731;SDS011;32477;51.474;5.696;2023-09-19T06:37:36;16.42;;;2.88;;
46731;SDS011;32477;51.474;5.696;2023-09-19T06:40:06;16.08;;;2.47;;
46731;SDS011;32477;51.474;5.696;2023-09-19T06:42:38;17.35;;;2.88;;
46731;SDS011;32477;51.474;5.696;2023-09-19T06:45:04;9.07;;;2.10;;
46731;SDS011;32477;51.474;5.696;2023-09-19T06:47:30;14.48;;;2.65;;
46731;SDS011;32477;51.474;5.696;2023-09-19T06:49:56;17.10;;;2.75;;
46731;SDS011;32477;51.474;5.696;2023-09-19T06:52:22;14.77;;;2.67;;
46731;SDS011;32477;51.474;5.696;2023-09-19T06:54:48;23.50;;;2.90;;
46731;SDS011;32477;51.474;5.696;2023-09-19T06:57:15;14.93;;;2.70;;
46731;SDS011;32477;51.474;5.696;2023-09-19T06:59:41;19.77;;;2.45;;
46731;SDS011;32477;51.474;5.696;2023-09-19T07:02:07;11.40;;;2.92;;
46731;SDS011;32477;51.474;5.696;2023-09-19T07:04:33;18.27;;;2.58;;
46731;SDS011;32477;51.474;5.696;2023-09-19T07:06:59;13.18;;;2.70;;
46731;SDS011;32477;51.474;5.696;2023-09-19T07:09:24;16.63;;;2.60;;
46731;SDS011;32477;51.474;5.696;2023-09-19T07:11:52;19.00;;;2.72;;
46731;SDS011;32477;51.474;5.696;2023-09-19T07:14:18;14.05;;;2.80;;
46731;SDS011;32477;51.474;5.696;2023-09-19T07:16:44;17.48;;;2.42;;
46731;SDS011;32477;51.474;5.696;2023-09-19T07:19:10;9.30;;;2.00;;
46731;SDS011;32477;51.474;5.696;2023-09-19T07:21:36;16.52;;;2.75;;
46731;SDS011;32477;51.474;5.696;2023-09-19T07:24:03;16.73;;;2.92;;
46731;SDS011;32477;51.474;5.696;2023-09-19T07:26:29;13.80;;;2.67;;
46731;SDS011;32477;51.474;5.696;2023-09-19T07:28:56;17.13;;;2.92;;
46731;SDS011;32477;51.474;5.696;2023-09-19T07:31:22;8.85;;;2.15;;
46731;SDS011;32477;51.474;5.696;2023-09-19T07:33:48;14.52;;;2.50;;
46731;SDS011;32477;51.474;5.696;2023-09-19T07:36:14;14.95;;;2.05;;
46731;SDS011;32477;51.474;5.696;2023-09-19T07:38:41;13.35;;;2.60;;
46731;SDS011;32477;51.474;5.696;2023-09-19T07:41:07;13.40;;;2.45;;
46731;SDS011;32477;51.474;5.696;2023-09-19T07:43:36;15.52;;;2.30;;
46731;SDS011;32477;51.474;5.696;2023-09-19T07:46:04;17.75;;;2.60;;
46731;SDS011;32477;51.474;5.696;2023-09-19T07:48:32;12.68;;;2.33;;
46731;SDS011;32477;51.474;5.696;2023-09-19T07:51:01;13.38;;;2.90;;
46731;SDS011;32477;51.474;5.696;2023-09-19T07:53:28;14.15;;;3.10;;
46731;SDS011;32477;51.474;5.696;2023-09-19T07:56:01;13.57;;;2.38;;
46731;SDS011;32477;51.474;5.696;2023-09-19T07:58:30;14.30;;;1.75;;
46731;SDS011;32477;51.474;5.696;2023-09-19T08:00:56;14.50;;;2.45;;
46731;SDS011;32477;51.474;5.696;2023-09-19T08:03:27;14.63;;;2.40;;
46731;SDS011;32477;51.474;5.696;2023-09-19T08:05:53;13.45;;;3.45;;
46731;SDS011;32477;51.474;5.696;2023-09-19T08:08:18;11.23;;;2.20;;
46731;SDS011;32477;51.474;5.696;2023-09-19T08:10:45;13.95;;;2.95;;
46731;SDS011;32477;51.474;5.696;2023-09-19T08:13:14;12.25;;;2.70;;
46731;SDS011;32477;51.474;5.696;2023-09-19T08:15:45;15.77;;;2.75;;
46731;SDS011;32477;51.474;5.696;2023-09-19T08:18:10;20.27;;;2.92;;
46731;SDS011;32477;51.474;5.696;2023-09-19T08:20:37;13.93;;;2.45;;
46731;SDS011;32477;51.474;5.696;2023-09-19T08:23:03;10.45;;;2.10;;
46731;SDS011;32477;51.474;5.696;2023-09-19T08:25:29;12.48;;;3.08;;
46731;SDS011;32477;51.474;5.696;2023-09-19T08:27:55;16.08;;;2.78;;
46731;SDS011;32477;51.474;5.696;2023-09-19T08:30:25;17.42;;;2.75;;
46731;SDS011;32477;51.474;5.696;2023-09-19T08:32:58;15.50;;;2.65;;
46731;SDS011;32477;51.474;5.696;2023-09-19T08:35:25;10.45;;;2.63;;
46731;SDS011;32477;51.474;5.696;2023-09-19T08:37:51;24.13;;;3.20;;
46731;SDS011;32477;51.474;5.696;2023-09-19T08:40:17;13.27;;;2.50;;
46731;SDS011;32477;51.474;5.696;2023-09-19T08:42:53;15.40;;;2.42;;
46731;SDS011;32477;51.474;5.696;2023-09-19T08:45:20;14.40;;;2.00;;
46731;SDS011;32477;51.474;5.696;2023-09-19T08:50:52;15.20;;;2.42;;
46731;SDS011;32477;51.474;5.696;2023-09-19T08:53:26;14.50;;;2.47;;
46731;SDS011;32477;51.474;5.696;2023-09-19T08:56:17;12.82;;;2.47;;
46731;SDS011;32477;51.474;5.696;2023-09-19T08:58:48;15.30;;;2.85;;
46731;SDS011;32477;51.474;5.696;2023-09-19T09:01:19;11.02;;;2.45;;
46731;SDS011;32477;51.474;5.696;2023-09-19T09:03:55;16.20;;;2.97;;
46731;SDS011;32477;51.474;5.696;2023-09-19T09:06:22;21.13;;;3.33;;
46731;SDS011;32477;51.474;5.696;2023-09-19T09:08:50;13.32;;;2.38;;
46731;SDS011;32477;51.474;5.696;2023-09-19T09:11:17;10.38;;;2.08;;
46731;SDS011;32477;51.474;5.696;2023-09-19T09:13:43;16.02;;;2.92;;
46731;SDS011;32477;51.474;5.696;2023-09-19T09:16:10;13.02;;;2.83;;
46731;SDS011;32477;51.474;5.696;2023-09-19T09:18:37;12.38;;;2.85;;
46731;SDS011;32477;51.474;5.696;2023-09-19T09:21:03;13.90;;;3.33;;
46731;SDS011;32477;51.474;5.696;2023-09-19T09:23:29;13.00;;;2.58;;
46731;SDS011;32477;51.474;5.696;2023-09-19T09:25:57;13.00;;;2.70;;
46731;SDS011;32477;51.474;5.696;2023-09-19T09:28:32;19.10;;;2.97;;
46731;SDS011;32477;51.474;5.696;2023-09-19T09:30:59;12.55;;;2.33;;
46731;SDS011;32477;51.474;5.696;2023-09-19T09:33:27;14.75;;;2.80;;
46731;SDS011;32477;51.474;5.696;2023-09-19T09:36:00;15.93;;;3.15;;
46731;SDS011;32477;51.474;5.696;2023-09-19T09:38:28;15.50;;;2.80;;
46731;SDS011;32477;51.474;5.696;2023-09-19T09:40:58;12.95;;;3.03;;
46731;SDS011;32477;51.474;5.696;2023-09-19T09:43:47;11.63;;;3.03;;
46731;SDS011;32477;51.474;5.696;2023-09-19T09:46:17;12.57;;;2.42;;
46731;SDS011;32477;51.474;5.696;2023-09-19T09:49:04;13.60;;;3.13;;
46731;SDS011;32477;51.474;5.696;2023-09-19T09:54:29;14.82;;;2.33;;
46731;SDS011;32477;51.474;5.696;2023-09-19T09:57:01;17.67;;;3.08;;
46731;SDS011;32477;51.474;5.696;2023-09-19T09:59:58;11.82;;;2.45;;
46731;SDS011;32477;51.474;5.696;2023-09-19T10:02:41;11.02;;;2.72;;
46731;SDS011;32477;51.474;5.696;2023-09-19T10:05:18;16.27;;;2.72;;
46731;SDS011;32477;51.474;5.696;2023-09-19T10:07:44;13.38;;;2.40;;
46731;SDS011;32477;51.474;5.696;2023-09-19T10:10:35;14.27;;;2.55;;
46731;SDS011;32477;51.474;5.696;2023-09-19T10:13:11;10.77;;;2.20;;
46731;SDS011;32477;51.474;5.696;2023-09-19T10:15:40;14.40;;;2.38;;
46731;SDS011;32477;51.474;5.696;2023-09-19T10:18:15;8.80;;;2.55;;
46731;SDS011;32477;51.474;5.696;2023-09-19T10:20:45;16.45;;;3.13;;
46731;SDS011;32477;51.474;5.696;2023-09-19T10:23:13;9.95;;;2.85;;
46731;SDS011;32477;51.474;5.696;2023-09-19T10:25:47;15.05;;;2.97;;
46731;SDS011;32477;51.474;5.696;2023-09-19T10:28:14;8.68;;;2.33;;
46731;SDS011;32477;51.474;5.696;2023-09-19T10:30:45;10.15;;;2.28;;
46731;SDS011;32477;51.474;5.696;2023-09-19T10:33:21;13.50;;;2.50;;
46731;SDS011;32477;51.474;5.696;2023-09-19T10:35:50;9.27;;;2.40;;
46731;SDS011;32477;51.474;5.696;2023-09-19T10:38:17;9.57;;;2.15;;
46731;SDS011;32477;51.474;5.696;2023-09-19T10:40:48;12.05;;;2.45;;
46731;SDS011;32477;51.474;5.696;2023-09-19T10:43:17;9.32;;;2.45;;
46731;SDS011;32477;51.474;5.696;2023-09-19T10:45:46;12.32;;;2.60;;
46731;SDS011;32477;51.474;5.696;2023-09-19T10:48:18;11.60;;;2.22;;
46731;SDS011;32477;51.474;5.696;2023-09-19T10:50:46;7.90;;;2.53;;
46731;SDS011;32477;51.474;5.696;2023-09-19T10:53:16;11.27;;;2.50;;
46731;SDS011;32477;51.474;5.696;2023-09-19T10:55:48;5.85;;;1.95;;
46731;SDS011;32477;51.474;5.696;2023-09-19T10:58:27;15.00;;;2.60;;
46731;SDS011;32477;51.474;5.696;2023-09-19T11:00:55;12.68;;;2.65;;
46731;SDS011;32477;51.474;5.696;2023-09-19T11:03:22;10.15;;;2.47;;
46731;SDS011;32477;51.474;5.696;2023-09-19T11:30:40;7.40;;;1.73;;
46731;SDS011;32477;51.474;5.696;2023-09-19T11:33:19;5.72;;;1.55;;
46731;SDS011;32477;51.474;5.696;2023-09-19T11:46:29;6.93;;;1.73;;
46731;SDS011;32477;51.474;5.696;2023-09-19T11:48:58;9.02;;;1.52;;
46731;SDS011;32477;51.474;5.696;2023-09-19T11:51:39;6.57;;;1.58;;
46731;SDS011;32477;51.474;5.696;2023-09-19T11:54:10;11.52;;;1.98;;
46731;SDS011;32477;51.474;5.696;2023-09-19T11:56:42;4.25;;;1.65;;
46731;SDS011;32477;51.474;5.696;2023-09-19T12:01:51;7.80;;;2.00;;
46731;SDS011;32477;51.474;5.696;2023-09-19T12:04:39;4.43;;;1.35;;
46731;SDS011;32477;51.474;5.696;2023-09-19T12:07:09;14.25;;;1.67;;
46731;SDS011;32477;51.474;5.696;2023-09-19T12:09:40;9.05;;;1.80;;
46731;SDS011;32477;51.474;5.696;2023-09-19T12:12:23;7.25;;;1.98;;
46731;SDS011;32477;51.474;5.696;2023-09-19T12:14:52;20.58;;;1.48;;
46731;SDS011;32477;51.474;5.696;2023-09-19T12:17:19;5.85;;;1.50;;
46731;SDS011;32477;51.474;5.696;2023-09-19T12:19:51;4.90;;;1.30;;
46731;SDS011;32477;51.474;5.696;2023-09-19T12:22:17;11.02;;;2.05;;
46731;SDS011;32477;51.474;5.696;2023-09-19T12:24:44;3.97;;;1.33;;
46731;SDS011;32477;51.474;5.696;2023-09-19T12:27:10;3.63;;;0.95;;
46731;SDS011;32477;51.474;5.696;2023-09-19T12:29:49;8.35;;;1.50;;
46731;SDS011;32477;51.474;5.696;2023-09-19T12:32:15;3.97;;;1.20;;
46731;SDS011;32477;51.474;5.696;2023-09-19T12:34:52;4.63;;;1.40;;
46731;SDS011;32477;51.474;5.696;2023-09-19T12:37:19;7.03;;;1.50;;
46731;SDS011;32477;51.474;5.696;2023-09-19T12:39:48;8.57;;;1.33;;
46731;SDS011;32477;51.474;5.696;2023-09-19T12:42:20;8.55;;;1.30;;
46731;SDS011;32477;51.474;5.696;2023-09-19T12:44:50;8.35;;;1.02;;
46731;SDS011;32477;51.474;5.696;2023-09-19T12:47:20;3.72;;;1.23;;
46731;SDS011;32477;51.474;5.696;2023-09-19T12:50:08;6.82;;;1.90;;
46731;SDS011;32477;51.474;5.696;2023-09-19T12:52:50;8.15;;;1.27;;
46731;SDS011;32477;51.474;5.696;2023-09-19T12:55:24;3.70;;;0.95;;
46731;SDS011;32477;51.474;5.696;2023-09-19T12:57:55;4.80;;;1.20;;
46731;SDS011;32477;51.474;5.696;2023-09-19T13:00:34;6.75;;;1.27;;
46731;SDS011;32477;51.474;5.696;2023-09-19T13:03:14;2.78;;;0.90;;
46731;SDS011;32477;51.474;5.696;2023-09-19T13:05:57;5.30;;;1.05;;
46731;SDS011;32477;51.474;5.696;2023-09-19T13:13:27;6.65;;;1.35;;
46731;SDS011;32477;51.474;5.696;2023-09-19T13:15:53;10.82;;;1.42;;
46731;SDS011;32477;51.474;5.696;2023-09-19T13:18:22;3.13;;;1.00;;
46731;SDS011;32477;51.474;5.696;2023-09-19T13:21:07;6.75;;;1.70;;
46731;SDS011;32477;51.474;5.696;2023-09-19T13:23:40;3.53;;;1.10;;
46731;SDS011;32477;51.474;5.696;2023-09-19T13:26:07;8.30;;;1.58;;
46731;SDS011;32477;51.474;5.696;2023-09-19T13:28:37;4.93;;;1.08;;
46731;SDS011;32477;51.474;5.696;2023-09-19T13:31:03;4.50;;;0.73;;
46731;SDS011;32477;51.474;5.696;2023-09-19T13:33:29;6.53;;;1.30;;
46731;SDS011;32477;51.474;5.696;2023-09-19T13:35:55;8.30;;;1.33;;
46731;SDS011;32477;51.474;5.696;2023-09-19T13:38:22;7.47;;;0.90;;
46731;SDS011;32477;51.474;5.696;2023-09-19T13:40:48;12.05;;;1.10;;
46731;SDS011;32477;51.474;5.696;2023-09-19T13:43:14;3.15;;;1.00;;
46731;SDS011;32477;51.474;5.696;2023-09-19T13:45:40;4.78;;;1.30;;
46731;SDS011;32477;51.474;5.696;2023-09-19T13:48:09;5.40;;;0.93;;
46731;SDS011;32477;51.474;5.696;2023-09-19T13:50:36;9.00;;;1.50;;
46731;SDS011;32477;51.474;5.696;2023-09-19T13:53:07;13.88;;;1.52;;
46731;SDS011;32477;51.474;5.696;2023-09-19T13:55:33;2.75;;;1.05;;
46731;SDS011;32477;51.474;5.696;2023-09-19T13:57:58;3.85;;;0.98;;
46731;SDS011;32477;51.474;5.696;2023-09-19T14:00:25;5.25;;;1.27;;
46731;SDS011;32477;51.474;5.696;2023-09-19T14:02:51;5.13;;;1.10;;
46731;SDS011;32477;51.474;5.696;2023-09-19T14:05:17;5.07;;;1.15;;
46731;SDS011;32477;51.474;5.696;2023-09-19T14:07:44;3.38;;;0.90;;
46731;SDS011;32477;51.474;5.696;2023-09-19T14:10:10;5.15;;;0.90;;
46731;SDS011;32477;51.474;5.696;2023-09-19T14:12:37;3.53;;;0.90;;
46731;SDS011;32477;51.474;5.696;2023-09-19T14:15:05;4.82;;;1.10;;
46731;SDS011;32477;51.474;5.696;2023-09-19T14:17:34;5.13;;;1.20;;
46731;SDS011;32477;51.474;5.696;2023-09-19T14:20:00;3.63;;;0.95;;
46731;SDS011;32477;51.474;5.696;2023-09-19T14:22:25;3.83;;;1.05;;
46731;SDS011;32477;51.474;5.696;2023-09-19T14:24:51;6.45;;;1.00;;
46731;SDS011;32477;51.474;5.696;2023-09-19T14:27:17;3.65;;;0.85;;
46731;SDS011;32477;51.474;5.696;2023-09-19T14:29:43;8.13;;;1.20;;
46731;SDS011;32477;51.474;5.696;2023-09-19T14:32:09;7.03;;;1.10;;
46731;SDS011;32477;51.474;5.696;2023-09-19T14:34:35;6.13;;;1.15;;
46731;SDS011;32477;51.474;5.696;2023-09-19T14:37:06;3.15;;;0.73;;
46731;SDS011;32477;51.474;5.696;2023-09-19T14:39:36;3.05;;;0.90;;
46731;SDS011;32477;51.474;5.696;2023-09-19T14:42:03;7.78;;;1.17;;
46731;SDS011;32477;51.474;5.696;2023-09-19T14:44:29;6.20;;;1.13;;
46731;SDS011;32477;51.474;5.696;2023-09-19T14:46:55;5.07;;;0.93;;
46731;SDS011;32477;51.474;5.696;2023-09-19T14:49:20;4.38;;;1.02;;
46731;SDS011;32477;51.474;5.696;2023-09-19T14:51:46;9.07;;;1.83;;
46731;SDS011;32477;51.474;5.696;2023-09-19T14:54:14;6.38;;;1.48;;
46731;SDS011;32477;51.474;5.696;2023-09-19T14:56:43;2.65;;;1.00;;
46731;SDS011;32477;51.474;5.696;2023-09-19T14:59:09;4.47;;;1.20;;
46731;SDS011;32477;51.474;5.696;2023-09-19T15:01:36;6.70;;;1.13;;
46731;SDS011;32477;51.474;5.696;2023-09-19T15:04:01;6.80;;;1.65;;
46731;SDS011;32477;51.474;5.696;2023-09-19T15:06:27;8.13;;;1.15;;
46731;SDS011;32477;51.474;5.696;2023-09-19T15:08:53;8.02;;;1.40;;
46731;SDS011;32477;51.474;5.696;2023-09-19T15:11:19;4.93;;;1.10;;
46731;SDS011;32477;51.474;5.696;2023-09-19T15:13:46;5.85;;;1.05;;
46731;SDS011;32477;51.474;5.696;2023-09-19T15:16:13;4.43;;;1.30;;
46731;SDS011;32477;51.474;5.696;2023-09-19T15:18:42;4.90;;;1.45;;
46731;SDS011;32477;51.474;5.696;2023-09-19T15:21:12;4.88;;;1.10;;
46731;SDS011;32477;51.474;5.696;2023-09-19T15:23:39;8.05;;;1.38;;
46731;SDS011;32477;51.474;5.696;2023-09-19T15:26:06;5.55;;;1.10;;
46731;SDS011;32477;51.474;5.696;2023-09-19T15:28:39;5.03;;;1.23;;
46731;SDS011;32477;51.474;5.696;2023-09-19T15:31:06;6.85;;;1.20;;
46731;SDS011;32477;51.474;5.696;2023-09-19T15:33:33;4.75;;;1.20;;
46731;SDS011;32477;51.474;5.696;2023-09-19T15:36:10;4.55;;;1.17;;
46731;SDS011;32477;51.474;5.696;2023-09-19T15:41:31;6.78;;;1.08;;
46731;SDS011;32477;51.474;5.696;2023-09-19T15:44:04;4.53;;;0.93;;
46731;SDS011;32477;51.474;5.696;2023-09-19T15:46:35;8.35;;;1.23;;
46731;SDS011;32477;51.474;5.696;2023-09-19T15:49:01;6.95;;;1.45;;
46731;SDS011;32477;51.474;5.696;2023-09-19T15:51:27;4.65;;;1.00;;